sensor_id;sensor_type;location;lat;lon;timestamp;temperature;humidity
19188;DHT22;9726;52.198;8.792;2023-11-19T00:00:09;8.60;1.00
19188;DHT22;9726;52.198;8.792;2023-11-19T00:02:41;8.60;99.90
19188;DHT22;9726;52.198;8.792;2023-11-19T00:05:10;8.60;99.90
19188;DHT22;9726;52.198;8.792;2023-11-19T00:07:40;8.60;1.00
19188;DHT22;9726;52.198;8.792;2023-11-19T00:10:12;8.80;1.00
19188;DHT22;9726;52.198;8.792;2023-11-19T00:12:43;8.60;1.00
19188;DHT22;9726;52.198;8.792;2023-11-19T00:15:12;8.90;1.00
19188;DHT22;9726;52.198;8.792;2023-11-19T00:17:44;8.70;1.00
19188;DHT22;9726;52.198;8.792;2023-11-19T00:20:13;8.90;1.00
19188;DHT22;9726;52.198;8.792;2023-11-19T00:22:41;8.90;1.00
19188;DHT22;9726;52.198;8.792;2023-11-19T00:25:12;9.00;1.00
19188;DHT22;9726;52.198;8.792;2023-11-19T00:27:39;9.10;1.00
19188;DHT22;9726;52.198;8.792;2023-11-19T00:30:07;9.20;1.00
19188;DHT22;9726;52.198;8.792;2023-11-19T00:32:37;9.30;1.00
19188;DHT22;9726;52.198;8.792;2023-11-19T00:35:06;9.30;1.00
19188;DHT22;9726;52.198;8.792;2023-11-19T00:37:37;9.30;1.00
19188;DHT22;9726;52.198;8.792;2023-11-19T00:40:05;9.20;1.00
19188;DHT22;9726;52.198;8.792;2023-11-19T00:42:33;9.50;1.00
19188;DHT22;9726;52.198;8.792;2023-11-19T00:45:00;9.50;1.00
19188;DHT22;9726;52.198;8.792;2023-11-19T00:49:58;9.20;1.00
19188;DHT22;9726;52.198;8.792;2023-11-19T00:52:25;9.30;1.00
19188;DHT22;9726;52.198;8.792;2023-11-19T00:54:53;9.30;1.00
19188;DHT22;9726;52.198;8.792;2023-11-19T00:57:20;9.20;1.00
19188;DHT22;9726;52.198;8.792;2023-11-19T00:59:47;9.30;1.00
19188;DHT22;9726;52.198;8.792;2023-11-19T01:02:14;9.30;1.00
19188;DHT22;9726;52.198;8.792;2023-11-19T01:07:10;9.60;6.00
19188;DHT22;9726;52.198;8.792;2023-11-19T01:09:42;9.10;37.00
19188;DHT22;9726;52.198;8.792;2023-11-19T01:12:10;9.30;29.30
19188;DHT22;9726;52.198;8.792;2023-11-19T01:14:38;9.30;15.70
19188;DHT22;9726;52.198;8.792;2023-11-19T01:17:05;9.30;55.50
19188;DHT22;9726;52.198;8.792;2023-11-19T01:19:34;9.30;53.10
19188;DHT22;9726;52.198;8.792;2023-11-19T01:22:01;9.30;52.10
19188;DHT22;9726;52.198;8.792;2023-11-19T01:24:28;9.40;94.00
19188;DHT22;9726;52.198;8.792;2023-11-19T01:26:58;9.50;99.90
19188;DHT22;9726;52.198;8.792;2023-11-19T01:29:27;9.50;99.90
19188;DHT22;9726;52.198;8.792;2023-11-19T01:31:54;9.40;99.90
19188;DHT22;9726;52.198;8.792;2023-11-19T01:34:21;9.60;99.90
19188;DHT22;9726;52.198;8.792;2023-11-19T01:36:48;9.40;99.90
19188;DHT22;9726;52.198;8.792;2023-11-19T01:39:16;9.40;99.90
19188;DHT22;9726;52.198;8.792;2023-11-19T01:41:43;9.40;99.90
19188;DHT22;9726;52.198;8.792;2023-11-19T01:44:11;9.60;99.90
19188;DHT22;9726;52.198;8.792;2023-11-19T01:46:42;9.70;99.90
19188;DHT22;9726;52.198;8.792;2023-11-19T01:49:11;9.80;99.90
19188;DHT22;9726;52.198;8.792;2023-11-19T02:08:59;10.30;99.90
19188;DHT22;9726;52.198;8.792;2023-11-19T02:11:27;10.20;99.90
19188;DHT22;9726;52.198;8.792;2023-11-19T02:13:57;10.20;99.90
19188;DHT22;9726;52.198;8.792;2023-11-19T02:16:24;10.30;99.90
19188;DHT22;9726;52.198;8.792;2023-11-19T02:18:51;10.30;99.90
19188;DHT22;9726;52.198;8.792;2023-11-19T02:21:18;10.30;99.90
19188;DHT22;9726;52.198;8.792;2023-11-19T02:23:45;10.20;99.90
19188;DHT22;9726;52.198;8.792;2023-11-19T02:26:18;10.20;99.90
19188;DHT22;9726;52.198;8.792;2023-11-19T02:28:48;10.30;99.90
19188;DHT22;9726;52.198;8.792;2023-11-19T02:31:15;10.30;99.90
19188;DHT22;9726;52.198;8.792;2023-11-19T02:36:10;10.30;99.90
19188;DHT22;9726;52.198;8.792;2023-11-19T02:38:38;10.40;99.90
19188;DHT22;9726;52.198;8.792;2023-11-19T02:41:06;10.40;99.90
19188;DHT22;9726;52.198;8.792;2023-11-19T02:46:03;10.40;99.90
19188;DHT22;9726;52.198;8.792;2023-11-19T03:35:44;10.90;56.70
19188;DHT22;9726;52.198;8.792;2023-11-19T03:48:06;11.30;1.00
19188;DHT22;9726;52.198;8.792;2023-11-19T03:53:02;11.00;1.00
19188;DHT22;9726;52.198;8.792;2023-11-19T03:55:29;11.30;1.00
19188;DHT22;9726;52.198;8.792;2023-11-19T04:02:52;11.30;1.00
19188;DHT22;9726;52.198;8.792;2023-11-19T04:05:19;11.30;1.00
19188;DHT22;9726;52.198;8.792;2023-11-19T04:12:43;11.40;1.00
19188;DHT22;9726;52.198;8.792;2023-11-19T04:15:11;11.40;99.90
19188;DHT22;9726;52.198;8.792;2023-11-19T04:27:35;11.40;1.00
19188;DHT22;9726;52.198;8.792;2023-11-19T04:30:03;11.60;1.00
19188;DHT22;9726;52.198;8.792;2023-11-19T04:34:58;11.50;1.00
19188;DHT22;9726;52.198;8.792;2023-11-19T04:39:52;11.60;99.30
19188;DHT22;9726;52.198;8.792;2023-11-19T04:42:22;11.70;1.00
19188;DHT22;9726;52.198;8.792;2023-11-19T04:47:17;11.50;1.00
19188;DHT22;9726;52.198;8.792;2023-11-19T04:52:12;11.40;1.00
19188;DHT22;9726;52.198;8.792;2023-11-19T04:54:43;11.30;1.00
19188;DHT22;9726;52.198;8.792;2023-11-19T04:57:11;11.40;94.20
19188;DHT22;9726;52.198;8.792;2023-11-19T04:59:38;11.40;99.90
19188;DHT22;9726;52.198;8.792;2023-11-19T05:02:05;11.20;99.90
19188;DHT22;9726;52.198;8.792;2023-11-19T05:04:32;11.40;99.90
19188;DHT22;9726;52.198;8.792;2023-11-19T05:07:00;11.50;99.90
19188;DHT22;9726;52.198;8.792;2023-11-19T05:09:27;11.30;99.90
19188;DHT22;9726;52.198;8.792;2023-11-19T05:11:54;11.30;29.70
19188;DHT22;9726;52.198;8.792;2023-11-19T05:14:21;11.20;65.20
19188;DHT22;9726;52.198;8.792;2023-11-19T05:16:49;11.20;1.00
19188;DHT22;9726;52.198;8.792;2023-11-19T05:19:16;11.30;1.00
19188;DHT22;9726;52.198;8.792;2023-11-19T05:21:43;11.40;1.00
19188;DHT22;9726;52.198;8.792;2023-11-19T05:24:11;11.50;1.00
19188;DHT22;9726;52.198;8.792;2023-11-19T05:26:41;11.40;1.00
19188;DHT22;9726;52.198;8.792;2023-11-19T05:29:08;11.60;1.00
19188;DHT22;9726;52.198;8.792;2023-11-19T05:31:35;11.50;99.90
19188;DHT22;9726;52.198;8.792;2023-11-19T05:34:04;11.60;1.00
19188;DHT22;9726;52.198;8.792;2023-11-19T05:36:32;11.60;99.90
19188;DHT22;9726;52.198;8.792;2023-11-19T09:35:48;11.20;99.90
19188;DHT22;9726;52.198;8.792;2023-11-19T09:38:17;11.10;99.90
19188;DHT22;9726;52.198;8.792;2023-11-19T09:40:45;10.80;1.00
19188;DHT22;9726;52.198;8.792;2023-11-19T09:45:50;10.60;99.90
19188;DHT22;9726;52.198;8.792;2023-11-19T09:48:18;10.70;1.00
19188;DHT22;9726;52.198;8.792;2023-11-19T09:50:47;10.70;1.00
19188;DHT22;9726;52.198;8.792;2023-11-19T09:53:15;10.70;42.80
19188;DHT22;9726;52.198;8.792;2023-11-19T09:55:45;10.70;1.00
19188;DHT22;9726;52.198;8.792;2023-11-19T09:58:12;10.80;1.00
19188;DHT22;9726;52.198;8.792;2023-11-19T10:00:42;10.90;1.00
19188;DHT22;9726;52.198;8.792;2023-11-19T10:03:13;11.10;99.90
19188;DHT22;9726;52.198;8.792;2023-11-19T10:05:41;11.10;1.00
19188;DHT22;9726;52.198;8.792;2023-11-19T10:10:38;11.40;1.00
19188;DHT22;9726;52.198;8.792;2023-11-19T10:13:05;11.40;1.00
19188;DHT22;9726;52.198;8.792;2023-11-19T10:15:36;11.50;99.90
19188;DHT22;9726;52.198;8.792;2023-11-19T10:18:07;11.50;1.00
19188;DHT22;9726;52.198;8.792;2023-11-19T10:20:40;11.40;99.90
19188;DHT22;9726;52.198;8.792;2023-11-19T23:05:46;10.10;99.90
19188;DHT22;9726;52.198;8.792;2023-11-19T23:08:17;10.30;99.90
